Time;durP1;ratioP1;P1;durP2;ratioP2;P2;SDS_P1;SDS_P2;PMS_P1;PMS_P2;Temp;Humidity;BMP_temperature;BMP_pressure;BME280_temperature;BME280_humidity;BME280_pressure;Samples;Min_cycle;Max_cycle;Signal;HPM_P1;HPM_P2
2022/06/22 00:00:35;;;;;;;9.07;7.00;;;12.00;99.90;;;;;;5055767;28;20537;-70
2022/06/22 00:03:04;;;;;;;7.78;6.30;;;12.00;99.90;;;;;;5072616;28;20082;-70
2022/06/22 00:05:38;;;;;;;10.38;6.75;;;11.90;99.90;;;;;;5072252;28;20040;-70
2022/06/22 00:08:07;;;;;;;8.88;6.57;;;11.90;99.90;;;;;;5073043;28;20408;-70
2022/06/22 00:10:45;;;;;;;7.93;6.68;;;11.90;99.90;;;;;;5072296;28;20097;-70
2022/06/22 00:13:17;;;;;;;7.57;6.70;;;11.90;99.90;;;;;;5072470;28;20066;-70
2022/06/22 00:16:03;;;;;;;;;;;11.80;99.90;;;;;;5055998;28;20039;-70
2022/06/22 00:18:34;;;;;;;7.13;5.82;;;11.80;99.90;;;;;;5072274;28;20424;-70
2022/06/22 00:21:31;;;;;;;6.03;5.40;;;11.70;99.90;;;;;;5072553;28;20435;-70
2022/06/22 00:23:59;;;;;;;5.88;5.03;;;11.60;99.90;;;;;;5044624;28;20063;-69
2022/06/22 00:26:24;;;;;;;4.28;3.88;;;11.50;99.90;;;;;;5072024;28;20528;-69
2022/06/22 00:29:05;;;;;;;5.38;4.20;;;11.50;99.90;;;;;;5072563;28;20048;-70
2022/06/22 00:31:34;;;;;;;4.40;4.00;;;11.40;99.90;;;;;;5055311;28;20044;-70
2022/06/22 00:34:08;;;;;;;4.35;4.05;;;11.30;99.90;;;;;;5072148;28;20546;-70
2022/06/22 00:37:04;;;;;;;5.72;5.18;;;11.30;99.90;;;;;;5072291;28;20397;-70
2022/06/22 00:39:29;;;;;;;5.97;5.47;;;11.30;99.90;;;;;;5072060;28;20063;-70
2022/06/22 00:42:18;;;;;;;6.47;5.88;;;11.30;99.90;;;;;;5072044;28;20484;-70
2022/06/22 00:44:50;;;;;;;6.35;5.75;;;11.20;99.90;;;;;;5072461;28;20384;-70
2022/06/22 00:47:36;;;;;;;6.10;5.22;;;11.10;99.90;;;;;;5071996;28;20094;-70
2022/06/22 00:50:37;;;;;;;7.13;5.40;;;11.10;99.90;;;;;;5072354;28;20032;-70
2022/06/22 00:53:14;;;;;;;5.80;5.20;;;11.00;99.90;;;;;;5059240;28;20048;-70
2022/06/22 00:55:53;;;;;;;6.85;5.07;;;10.90;99.90;;;;;;5071948;28;20048;-70
2022/06/22 00:58:47;;;;;;;5.95;4.85;;;10.80;99.90;;;;;;5072014;28;20048;-70
2022/06/22 01:01:21;;;;;;;5.50;5.00;;;10.70;99.90;;;;;;5071810;28;20043;-70
2022/06/22 01:04:07;;;;;;;6.47;5.60;;;10.70;99.90;;;;;;5071874;28;20050;-70
2022/06/22 01:06:53;;;;;;;6.07;5.47;;;10.70;99.90;;;;;;5072371;28;20045;-70
2022/06/22 01:09:41;;;;;;;6.07;5.47;;;10.70;99.90;;;;;;5075599;28;20036;-70
2022/06/22 01:12:23;;;;;;;8.55;6.07;;;10.70;99.90;;;;;;5058978;28;20071;-70
2022/06/22 01:15:09;;;;;;;5.50;5.00;;;10.70;99.90;;;;;;5075824;28;20032;-70
2022/06/22 01:17:54;;;;;;;5.80;5.22;;;10.60;99.90;;;;;;5058914;28;20127;-70
2022/06/22 01:20:28;;;;;;;7.15;5.60;;;10.60;99.90;;;;;;5075445;28;20054;-70
2022/06/22 01:23:31;;;;;;;5.55;5.03;;;10.50;99.90;;;;;;5058853;28;20101;-70
2022/06/22 01:26:03;;;;;;;5.95;5.32;;;10.50;99.90;;;;;;5075456;28;20036;-70
2022/06/22 01:28:29;;;;;;;5.10;4.70;;;10.50;99.90;;;;;;5075505;28;20035;-70
2022/06/22 01:31:02;;;;;;;6.60;5.90;;;10.50;99.90;;;;;;5075346;28;20050;-70
2022/06/22 01:33:38;;;;;;;5.30;4.85;;;10.50;99.90;;;;;;5075166;28;20094;-70
2022/06/22 01:36:17;;;;;;;5.00;4.57;;;10.40;99.90;;;;;;5075213;28;20387;-70
2022/06/22 01:38:42;;;;;;;5.78;5.28;;;10.40;99.90;;;;;;5074865;28;20064;-70
2022/06/22 01:41:49;;;;;;;5.68;4.68;;;10.30;99.90;;;;;;5058460;28;20055;-70
2022/06/22 01:44:36;;;;;;;5.15;4.57;;;10.30;99.90;;;;;;5061068;28;20039;-69
2022/06/22 01:47:47;;;;;;;4.57;4.25;;;10.20;99.90;;;;;;5058092;28;20127;-69
2022/06/22 01:50:42;;;;;;;5.10;4.70;;;10.20;99.90;;;;;;5031077;28;20081;-69
2022/06/22 01:53:31;;;;;;;5.95;5.32;;;10.10;99.90;;;;;;5074938;28;20561;-69
2022/06/22 01:56:37;;;;;;;5.60;5.10;;;10.00;99.90;;;;;;5075106;28;20441;-69
2022/06/22 01:59:24;;;;;;;6.80;6.03;;;9.90;99.90;;;;;;5074719;28;20052;-69
2022/06/22 02:02:32;;;;;;;7.68;5.72;;;9.80;99.90;;;;;;5058078;28;20116;-69
2022/06/22 02:05:08;;;;;;;6.78;6.13;;;9.80;99.90;;;;;;5030586;28;20131;-69
2022/06/22 02:07:45;;;;;;;6.60;6.00;;;9.70;99.90;;;;;;5057736;28;20040;-69
2022/06/22 02:10:29;;;;;;;5.97;5.43;;;9.70;99.90;;;;;;5074620;28;20040;-69
2022/06/22 02:13:19;;;;;;;5.82;5.25;;;9.50;99.90;;;;;;5074415;28;20123;-69
2022/06/22 02:15:49;;;;;;;5.68;5.18;;;9.60;99.90;;;;;;5057765;28;20043;-69
2022/06/22 02:18:27;;;;;;;5.63;4.85;;;9.60;99.90;;;;;;5073118;28;20131;-69
2022/06/22 02:20:53;;;;;;;6.35;5.40;;;9.60;99.90;;;;;;5074333;28;20044;-69
2022/06/22 02:23:24;;;;;;;6.90;5.40;;;9.60;99.90;;;;;;5074302;28;20505;-69
2022/06/22 02:26:15;;;;;;;7.43;6.70;;;9.50;99.90;;;;;;5074199;28;20125;-69
2022/06/22 02:28:43;;;;;;;113.60;11.45;;;9.40;99.90;;;;;;5074350;28;20058;-69
2022/06/22 02:31:09;;;;;;;126.97;12.25;;;9.20;99.90;;;;;;5074460;28;20042;-69
2022/06/22 02:33:40;;;;;;;20.10;11.45;;;8.90;99.90;;;;;;5073901;28;20048;-69
2022/06/22 02:36:06;;;;;;;31.08;11.27;;;8.90;99.90;;;;;;5074286;28;20265;-69
2022/06/22 02:38:32;;;;;;;11.80;10.00;;;8.90;99.90;;;;;;5056907;28;20060;-69
2022/06/22 02:46:34;;;;;;;9.95;8.95;;;9.00;99.90;;;;;;5073689;28;20047;-70
2022/06/22 02:49:05;;;;;;;9.63;8.73;;;9.00;99.90;;;;;;5073610;28;20043;-70
2022/06/22 02:51:42;;;;;;;11.48;9.50;;;9.10;99.90;;;;;;5056977;28;20252;-70
2022/06/22 02:54:32;;;;;;;10.27;9.18;;;9.10;99.90;;;;;;5056898;28;20542;-70
2022/06/22 02:57:12;;;;;;;10.95;9.95;;;9.10;99.90;;;;;;5073826;28;20052;-70
2022/06/22 02:59:38;;;;;;;10.52;9.52;;;9.20;99.90;;;;;;5091681;28;20512;-70
2022/06/22 03:02:05;;;;;;;9.30;8.40;;;9.20;99.90;;;;;;5073444;28;20071;-70
2022/06/22 03:04:31;;;;;;;10.35;9.30;;;9.10;99.90;;;;;;5073429;28;20055;-70
2022/06/22 03:06:58;;;;;;;9.90;8.85;;;9.10;99.90;;;;;;5073411;28;20051;-70
2022/06/22 03:09:26;;;;;;;8.38;7.57;;;9.10;99.90;;;;;;5056694;28;20119;-70
2022/06/22 03:11:55;;;;;;;8.82;7.93;;;9.10;99.90;;;;;;5056664;28;20508;-70
2022/06/22 03:14:37;;;;;;;10.43;8.75;;;9.10;99.90;;;;;;5072984;28;20052;-70
2022/06/22 03:17:13;;;;;;;11.57;9.73;;;9.10;99.90;;;;;;5072949;28;20051;-70
2022/06/22 03:20:16;;;;;;;11.30;10.25;;;9.10;99.90;;;;;;5072794;28;20797;-70
2022/06/22 03:22:49;;;;;;;12.32;10.45;;;9.20;99.90;;;;;;5011841;28;20047;-69
2022/06/22 03:25:21;;;;;;;10.95;9.82;;;9.20;99.90;;;;;;5064352;28;20521;-69
2022/06/22 03:27:52;;;;;;;10.73;9.48;;;9.10;99.90;;;;;;5072945;28;20048;-69
2022/06/22 03:30:24;;;;;;;11.30;9.20;;;8.80;99.90;;;;;;5072528;28;20032;-70
2022/06/22 03:33:03;;;;;;;11.27;9.80;;;8.70;99.90;;;;;;5073176;28;20532;-70
2022/06/22 03:35:37;;;;;;;28.88;9.98;;;8.80;99.90;;;;;;5072814;28;20089;-70
2022/06/22 03:38:10;;;;;;;16.85;9.00;;;8.70;99.90;;;;;;5073099;28;20587;-70
2022/06/22 03:40:51;;;;;;;67.95;10.38;;;8.60;99.90;;;;;;5056180;28;20039;-70
2022/06/22 03:43:21;;;;;;;22.08;8.30;;;8.40;99.90;;;;;;5072764;28;20036;-70
2022/06/22 03:45:52;;;;;;;46.28;7.95;;;8.30;99.90;;;;;;5072438;28;20044;-70
2022/06/22 03:48:54;;;;;;;25.90;7.78;;;8.30;99.90;;;;;;5072970;28;20032;-70
2022/06/22 03:51:26;;;;;;;14.02;7.57;;;8.30;99.90;;;;;;5072901;28;20105;-70
2022/06/22 03:53:56;;;;;;;8.10;7.30;;;8.20;99.90;;;;;;5097948;22;20047;-70
2022/06/22 03:56:28;;;;;;;9.00;7.82;;;8.40;99.90;;;;;;5109832;28;20059;-70
2022/06/22 03:58:54;;;;;;;32.38;7.53;;;8.30;99.90;;;;;;5109738;28;20480;-72
2022/06/22 04:01:22;;;;;;;29.10;8.52;;;8.20;99.90;;;;;;5109746;28;20046;-73
2022/06/22 04:03:49;;;;;;;76.82;10.82;;;8.20;99.90;;;;;;5109787;28;20092;-72
2022/06/22 04:06:26;;;;;;;61.17;10.63;;;8.10;99.90;;;;;;5109444;28;20362;-71
2022/06/22 04:08:52;;;;;;;38.78;9.50;;;8.10;99.90;;;;;;5092660;28;20111;-71
2022/06/22 04:11:25;;;;;;;19.13;9.70;;;8.10;99.90;;;;;;5109503;28;20039;-71
2022/06/22 04:14:10;;;;;;;10.23;9.23;;;8.20;99.90;;;;;;5110860;28;20067;-72
2022/06/22 04:16:39;;;;;;;10.85;9.85;;;8.30;99.90;;;;;;5109553;28;20126;-71
2022/06/22 04:19:16;;;;;;;10.60;9.60;;;8.50;99.90;;;;;;5109466;28;20048;-71
2022/06/22 04:21:46;;;;;;;10.45;9.45;;;8.70;99.90;;;;;;5110877;28;20038;-71
2022/06/22 04:24:24;;;;;;;11.45;10.35;;;8.90;99.90;;;;;;5109446;28;20039;-71
2022/06/22 04:27:22;;;;;;;10.48;9.50;;;9.10;99.90;;;;;;5109514;28;20381;-71
2022/06/22 04:30:05;;;;;;;10.20;9.07;;;9.20;99.90;;;;;;5092263;28;20043;-71
2022/06/22 04:32:41;;;;;;;10.25;9.35;;;9.40;99.90;;;;;;5092372;28;20035;-71
2022/06/22 04:35:36;;;;;;;10.73;9.65;;;9.60;99.90;;;;;;5092340;28;20088;-71
2022/06/22 04:38:21;;;;;;;12.35;11.05;;;9.70;99.90;;;;;;5110695;28;20038;-72
2022/06/22 04:40:58;;;;;;;12.90;11.68;;;9.70;99.90;;;;;;5110493;28;20051;-72
2022/06/22 04:43:24;;;;;;;12.43;11.23;;;9.80;99.90;;;;;;5113162;28;20048;-72
2022/06/22 04:45:51;;;;;;;12.68;11.45;;;9.90;99.90;;;;;;5096216;28;20476;-72
2022/06/22 04:48:28;;;;;;;13.20;10.70;;;10.00;99.90;;;;;;5113828;28;20047;-72
2022/06/22 04:50:58;;;;;;;12.27;11.18;;;10.10;99.90;;;;;;5113318;28;20071;-72
2022/06/22 04:53:39;;;;;;;11.70;10.60;;;10.30;99.90;;;;;;5113175;28;20043;-72
2022/06/22 04:56:16;;;;;;;13.98;12.57;;;10.40;99.90;;;;;;5096211;28;20473;-72
2022/06/22 04:58:51;;;;;;;12.40;11.13;;;10.40;99.90;;;;;;5096679;28;20031;-72
2022/06/22 05:01:24;;;;;;;13.50;11.98;;;10.60;99.90;;;;;;5113550;28;20050;-71
2022/06/22 05:03:56;;;;;;;18.17;14.70;;;10.70;99.90;;;;;;5113162;28;20396;-71
2022/06/22 05:06:48;;;;;;;22.87;17.67;;;10.90;99.90;;;;;;5112900;28;20043;-71
2022/06/22 05:09:30;;;;;;;16.63;14.55;;;11.00;99.90;;;;;;5055036;28;20405;-72
2022/06/22 05:11:55;;;;;;;17.65;15.02;;;11.20;99.90;;;;;;5095888;28;20043;-72
2022/06/22 05:14:27;;;;;;;22.33;17.58;;;11.30;99.90;;;;;;5112959;28;20035;-72
2022/06/22 05:16:57;;;;;;;16.55;14.40;;;11.50;99.90;;;;;;5112931;28;20035;-72
2022/06/22 05:19:29;;;;;;;16.83;15.05;;;11.60;99.90;;;;;;5112835;28;20126;-72
2022/06/22 05:21:57;;;;;;;17.38;14.90;;;11.70;99.90;;;;;;5112925;28;20047;-72
2022/06/22 05:24:27;;;;;;;19.52;16.70;;;11.90;99.90;;;;;;5113263;28;20051;-72
2022/06/22 05:26:56;;;;;;;19.20;17.20;;;12.00;99.90;;;;;;5112701;28;20042;-72
2022/06/22 05:29:34;;;;;;;21.02;16.52;;;12.20;99.90;;;;;;5114309;27;20154;-72
2022/06/22 05:32:03;;;;;;;17.58;15.70;;;12.30;99.90;;;;;;5112866;28;20475;-72
2022/06/22 05:34:33;;;;;;;19.02;16.17;;;12.40;99.90;;;;;;5112588;28;20031;-72
2022/06/22 05:37:04;;;;;;;17.95;15.77;;;12.60;99.90;;;;;;5112475;28;20100;-72
2022/06/22 05:39:33;;;;;;;20.75;15.60;;;12.70;99.90;;;;;;5112734;28;20127;-72
2022/06/22 05:41:59;;;;;;;21.08;15.63;;;12.90;99.90;;;;;;5112796;28;20050;-72
2022/06/22 05:44:26;;;;;;;15.68;13.40;;;13.20;99.90;;;;;;5112668;28;20035;-72
2022/06/22 05:46:56;;;;;;;17.77;13.93;;;;;;;;;;5112211;28;20036;-71
2022/06/22 05:49:29;;;;;;;14.90;11.90;;;14.20;99.90;;;;;;5113770;28;20350;-73
2022/06/22 05:52:01;;;;;;;12.23;10.90;;;15.90;99.90;;;;;;5095398;28;20380;-73
2022/06/22 05:54:40;;;;;;;11.55;10.32;;;18.10;99.90;;;;;;5111911;28;20066;-72
2022/06/22 05:57:26;;;;;;;10.60;9.50;;;18.80;99.90;;;;;;5112097;28;20104;-72
2022/06/22 06:00:11;;;;;;;9.38;7.82;;;20.50;99.90;;;;;;5112031;28;20043;-72
2022/06/22 06:03:00;;;;;;;10.25;7.95;;;21.70;99.90;;;;;;5112200;28;20069;-73
2022/06/22 06:05:49;;;;;;;8.75;7.88;;;22.40;99.90;;;;;;5112324;28;20101;-72
2022/06/22 06:08:24;;;;;;;8.52;7.05;;;23.80;98.00;;;;;;5111933;28;20115;-72
2022/06/22 06:10:50;;;;;;;8.23;6.40;;;24.40;94.50;;;;;;5112008;28;20035;-72
2022/06/22 06:13:19;;;;;;;7.13;5.95;;;25.00;95.40;;;;;;5111764;28;20036;-72
2022/06/22 06:15:47;;;;;;;7.22;6.15;;;25.80;93.90;;;;;;5111862;28;20043;-72
2022/06/22 06:18:20;;;;;;;6.70;6.00;;;26.50;91.50;;;;;;5111790;28;20067;-72
2022/06/22 06:20:53;;;;;;;7.88;5.85;;;27.00;87.80;;;;;;5111936;28;20035;-72
2022/06/22 06:23:27;;;;;;;8.05;5.50;;;26.90;85.40;;;;;;5094886;28;20075;-72
2022/06/22 06:28:49;;;;;;;7.47;5.40;;;26.90;79.10;;;;;;5111492;28;20060;-72
2022/06/22 06:31:38;;;;;;;7.63;4.60;;;26.50;81.70;;;;;;5094618;28;20070;-72
2022/06/22 06:34:12;;;;;;;6.85;4.03;;;;;;;;;;5094483;28;20047;-73
2022/06/22 06:36:49;;;;;;;6.55;4.00;;;27.20;79.20;;;;;;5111220;28;20040;-73
2022/06/22 06:39:21;;;;;;;5.55;4.00;;;27.70;71.10;;;;;;5111425;28;20036;-72
2022/06/22 06:42:06;;;;;;;7.00;4.30;;;28.10;69.50;;;;;;5111179;28;20031;-73
2022/06/22 06:44:37;;;;;;;6.53;4.03;;;27.00;69.70;;;;;;5094539;28;20159;-72
2022/06/22 06:47:06;;;;;;;9.48;3.58;;;27.80;72.60;;;;;;5111160;28;20043;-72
2022/06/22 06:49:43;;;;;;;8.52;4.03;;;27.90;70.10;;;;;;5111033;28;20089;-72
2022/06/22 06:52:26;;;;;;;6.20;4.13;;;27.40;67.00;;;;;;5093886;28;20130;-72
2022/06/22 06:55:24;;;;;;;6.38;3.67;;;28.10;66.60;;;;;;5093798;28;20496;-72
2022/06/22 06:58:27;;;;;;;8.10;4.30;;;28.20;67.20;;;;;;5093232;28;20048;-72
2022/06/22 07:00:53;;;;;;;4.15;3.05;;;28.40;65.10;;;;;;5110301;28;20046;-72
2022/06/22 07:03:22;;;;;;;5.78;3.90;;;;;;;;;;5110803;28;20393;-72
2022/06/22 07:05:50;;;;;;;6.95;3.90;;;;;;;;;;5110262;28;20039;-72
2022/06/22 07:08:20;;;;;;;5.82;4.07;;;;;;;;;;5110667;28;20054;-72
2022/06/22 07:10:57;;;;;;;8.93;4.70;;;28.60;68.10;;;;;;5110938;28;20062;-72
2022/06/22 07:13:51;;;;;;;7.22;4.05;;;28.20;64.70;;;;;;5110812;28;20614;-72
2022/06/22 07:16:22;;;;;;;7.85;4.05;;;28.60;64.90;;;;;;5110891;28;20040;-72
2022/06/22 07:18:50;;;;;;;6.55;4.30;;;28.80;64.90;;;;;;5110553;28;20039;-72
2022/06/22 07:21:26;;;;;;;7.90;4.90;;;27.90;63.90;;;;;;5110758;28;20039;-72
2022/06/22 07:24:03;;;;;;;5.53;4.45;;;27.30;64.10;;;;;;5110318;28;20122;-72
2022/06/22 07:26:44;;;;;;;7.25;4.75;;;27.70;63.40;;;;;;5110452;28;20511;-72
2022/06/22 07:29:25;;;;;;;7.68;4.80;;;28.50;64.50;;;;;;5093181;28;20515;-72
2022/06/22 07:32:19;;;;;;;6.22;3.78;;;28.80;64.30;;;;;;5111617;28;20058;-72
2022/06/22 07:35:01;;;;;;;7.35;4.32;;;29.00;63.20;;;;;;5100200;28;20043;-72
2022/06/22 07:37:35;;;;;;;8.77;4.45;;;29.10;61.80;;;;;;5111781;28;20048;-72
2022/06/22 07:40:28;;;;;;;6.95;3.65;;;29.20;61.50;;;;;;5110372;28;20047;-72
2022/06/22 07:42:56;;;;;;;7.78;4.25;;;28.90;60.70;;;;;;5105872;28;20580;-72
2022/06/22 07:45:24;;;;;;;7.80;4.15;;;29.10;60.50;;;;;;5093012;28;20476;-72
2022/06/22 07:48:00;;;;;;;8.20;4.90;;;28.70;61.10;;;;;;5109799;28;20036;-72
2022/06/22 07:50:30;;;;;;;8.07;4.35;;;29.20;60.50;;;;;;5110224;28;20046;-72
2022/06/22 07:53:14;;;;;;;7.00;5.10;;;28.60;60.50;;;;;;5109863;28;20063;-72
2022/06/22 07:55:52;;;;;;;9.88;5.47;;;28.70;61.00;;;;;;5111173;28;20519;-72
2022/06/22 07:58:40;;;;;;;5.63;4.50;;;29.00;60.00;;;;;;5110036;28;20043;-72
2022/06/22 08:01:10;;;;;;;7.10;4.25;;;27.90;57.60;;;;;;5110037;28;20139;-72
2022/06/22 08:03:44;;;;;;;5.77;5.20;;;28.50;60.00;;;;;;5093227;28;20065;-72
2022/06/22 08:06:26;;;;;;;7.90;4.95;;;29.20;60.20;;;;;;5109626;28;20404;-72
2022/06/22 08:08:58;;;;;;;7.45;4.40;;;29.60;60.60;;;;;;5109722;28;20555;-72
2022/06/22 08:11:42;;;;;;;8.20;5.80;;;29.50;58.70;;;;;;5109661;28;20044;-72
2022/06/22 08:14:15;;;;;;;7.25;4.90;;;28.70;58.60;;;;;;5109762;28;20047;-72
2022/06/22 08:16:46;;;;;;;7.75;5.05;;;26.90;60.70;;;;;;5108612;28;20548;-72
2022/06/22 08:19:12;;;;;;;8.33;4.27;;;26.60;62.90;;;;;;5109463;28;20039;-72
2022/06/22 08:21:45;;;;;;;7.68;4.20;;;24.70;64.10;;;;;;5109748;28;20277;-71
2022/06/22 08:24:12;;;;;;;6.10;3.33;;;25.00;64.20;;;;;;5109378;28;20122;-72
2022/06/22 08:26:38;;;;;;;6.65;3.85;;;24.60;65.50;;;;;;5109383;28;20065;-72
2022/06/22 08:29:05;;;;;;;7.30;3.40;;;24.10;64.90;;;;;;5109178;28;20032;-72
2022/06/22 08:31:56;;;;;;;5.07;3.55;;;23.60;66.60;;;;;;5109376;28;20054;-72
2022/06/22 08:34:29;;;;;;;6.93;4.10;;;23.20;67.00;;;;;;5109577;28;20050;-72
2022/06/22 08:37:06;;;;;;;4.82;3.40;;;22.50;69.40;;;;;;5092413;28;20036;-72
2022/06/22 08:39:34;;;;;;;6.47;3.25;;;22.50;70.20;;;;;;5109498;28;20075;-72
2022/06/22 08:42:37;;;;;;;5.22;3.35;;;22.30;68.90;;;;;;5092410;28;20130;-72
2022/06/22 08:45:34;;;;;;;10.07;3.70;;;22.40;69.50;;;;;;5109170;28;20059;-72
2022/06/22 08:48:08;;;;;;;7.32;4.32;;;22.30;70.00;;;;;;5109187;28;20051;-71
2022/06/22 08:50:52;;;;;;;7.35;3.90;;;21.50;72.50;;;;;;5109201;28;20046;-71
2022/06/22 08:53:47;;;;;;;7.75;4.45;;;21.50;73.40;;;;;;5109253;28;20047;-71
2022/06/22 08:56:40;;;;;;;5.25;3.40;;;21.80;72.60;;;;;;5097492;28;20059;-71
2022/06/22 08:59:21;;;;;;;8.93;5.00;;;22.00;73.80;;;;;;5109142;28;20075;-71
2022/06/22 09:02:11;;;;;;;6.60;4.37;;;21.90;72.50;;;;;;5109336;28;20363;-71
2022/06/22 09:04:50;;;;;;;6.95;4.07;;;22.00;76.00;;;;;;5108942;28;20040;-71
2022/06/22 09:07:39;;;;;;;8.25;4.30;;;22.30;73.00;;;;;;5109124;28;20050;-71
2022/06/22 09:10:20;;;;;;;7.72;3.60;;;22.40;73.30;;;;;;5108929;28;20189;-71
2022/06/22 09:13:06;;;;;;;5.43;2.95;;;22.40;72.80;;;;;;5109022;28;20038;-71
2022/06/22 09:15:32;;;;;;;6.22;2.88;;;22.30;73.40;;;;;;5110359;28;20456;-71
2022/06/22 09:18:13;;;;;;;4.68;2.28;;;22.30;70.00;;;;;;5108919;28;20067;-71
2022/06/22 09:21:02;;;;;;;5.72;2.92;;;22.30;70.60;;;;;;5108895;28;20055;-71
2022/06/22 09:23:40;;;;;;;5.88;2.85;;;22.10;71.40;;;;;;5109201;28;20435;-71
2022/06/22 09:26:35;;;;;;;4.35;2.42;;;22.10;70.50;;;;;;5091962;28;20427;-71
2022/06/22 09:29:13;;;;;;;3.10;2.17;;;22.10;71.50;;;;;;5113136;28;20043;-71
2022/06/22 09:32:20;;;;;;;5.00;2.67;;;22.30;72.30;;;;;;5112534;28;20047;-71
2022/06/22 09:35:08;;;;;;;4.15;2.22;;;22.30;70.80;;;;;;5085858;28;20043;-71
2022/06/22 09:37:46;;;;;;;5.88;2.63;;;22.20;70.50;;;;;;5112449;28;20077;-71
2022/06/22 09:40:38;;;;;;;4.05;2.60;;;22.30;70.90;;;;;;5095165;28;20051;-71
2022/06/22 09:43:11;;;;;;;5.07;3.17;;;22.10;72.70;;;;;;5057619;28;20047;-71
2022/06/22 09:46:03;;;;;;;4.95;2.58;;;21.80;70.60;;;;;;5112304;28;20046;-72
2022/06/22 09:48:51;;;;;;;4.20;2.17;;;22.00;71.50;;;;;;5095537;28;20070;-71
2022/06/22 09:51:31;;;;;;;5.88;2.85;;;22.30;71.80;;;;;;5112207;28;20038;-71
2022/06/22 09:57:21;;;;;;;4.93;2.92;;;22.70;72.60;;;;;;5112063;28;20047;-72
2022/06/22 10:00:14;;;;;;;4.93;3.30;;;22.80;73.20;;;;;;5095307;28;20039;-72
2022/06/22 10:03:07;;;;;;;7.30;3.22;;;22.60;74.10;;;;;;5112036;28;20040;-72
2022/06/22 10:06:05;;;;;;;5.45;3.00;;;22.70;74.40;;;;;;5111872;28;20066;-71
2022/06/22 10:09:17;;;;;;;4.45;2.30;;;22.30;71.90;;;;;;5113841;28;20169;-71
2022/06/22 10:11:57;;;;;;;3.22;2.50;;;22.30;72.10;;;;;;5013282;28;20053;-71
2022/06/22 10:14:42;;;;;;;4.97;2.80;;;22.40;69.40;;;;;;5102789;28;20063;-71
2022/06/22 10:17:36;;;;;;;5.25;3.08;;;22.40;72.60;;;;;;5113140;28;20434;-71
2022/06/22 10:20:14;;;;;;;6.00;3.45;;;22.80;72.00;;;;;;5111653;28;20489;-71
2022/06/22 10:22:48;;;;;;;5.60;3.45;;;22.50;69.70;;;;;;5111728;28;20092;-71
2022/06/22 10:25:33;;;;;;;4.60;2.47;;;22.70;69.30;;;;;;5111813;28;20059;-71
2022/06/22 10:28:39;;;;;;;4.10;3.28;;;22.80;70.30;;;;;;5112809;28;20476;-71
2022/06/22 10:31:28;;;;;;;4.47;3.00;;;22.50;71.00;;;;;;5094424;28;20550;-71
2022/06/22 10:34:15;;;;;;;5.53;2.75;;;22.80;70.00;;;;;;5111445;28;20040;-71
2022/06/22 10:36:59;;;;;;;7.68;4.00;;;23.10;72.30;;;;;;5111371;28;20093;-71
2022/06/22 10:39:50;;;;;;;5.18;3.50;;;23.20;71.10;;;;;;5110619;28;20035;-71
2022/06/22 10:45:46;;;;;;;6.95;3.65;;;23.30;70.10;;;;;;5111315;28;20051;-71
2022/06/22 10:48:41;;;;;;;5.47;3.28;;;23.10;69.80;;;;;;5022735;28;20585;-71
2022/06/22 10:51:20;;;;;;;5.03;3.78;;;23.10;69.70;;;;;;5111044;28;20035;-71
2022/06/22 10:54:14;;;;;;;5.43;3.90;;;23.40;72.10;;;;;;5111135;28;20496;-71
2022/06/22 10:57:05;;;;;;;6.30;3.90;;;23.50;70.40;;;;;;5110896;28;20104;-71
2022/06/22 11:00:05;;;;;;;8.02;4.05;;;23.50;69.30;;;;;;5111241;28;20484;-71
2022/06/22 11:02:39;;;;;;;5.35;3.53;;;23.60;70.40;;;;;;5110864;28;20108;-71
2022/06/22 11:05:35;;;;;;;8.90;4.28;;;23.70;71.50;;;;;;5110983;28;20086;-71
2022/06/22 11:08:24;;;;;;;7.88;4.30;;;23.40;70.20;;;;;;5112117;28;20040;-71
2022/06/22 11:11:27;;;;;;;6.50;4.00;;;23.60;71.20;;;;;;5110758;28;20054;-71
2022/06/22 11:14:47;;;;;;;6.45;3.28;;;23.80;70.90;;;;;;5093727;28;20047;-71
2022/06/22 11:17:34;;;;;;;7.65;4.25;;;23.80;70.50;;;;;;5012102;28;20080;-71
2022/06/22 11:20:24;;;;;;;7.40;4.47;;;23.30;68.90;;;;;;5104010;28;20059;-71
2022/06/22 11:22:54;;;;;;;5.93;3.17;;;23.50;70.60;;;;;;5110714;28;20047;-71
2022/06/22 11:31:45;;;;;;;7.68;3.67;;;23.60;66.70;;;;;;5110622;28;20051;-71
2022/06/22 11:34:17;;;;;;;3.72;3.33;;;23.50;69.30;;;;;;5110306;28;20051;-71
2022/06/22 11:36:57;;;;;;;7.50;4.00;;;23.50;69.60;;;;;;5110166;28;20093;-71
2022/06/22 11:39:48;;;;;;;3.75;3.33;;;23.20;68.80;;;;;;5110440;28;20036;-71
2022/06/22 11:42:45;;;;;;;7.10;3.50;;;23.40;68.80;;;;;;5093210;28;20051;-71
2022/06/22 11:48:25;;;;;;;5.63;3.13;;;23.30;67.50;;;;;;5110051;28;20047;-72
2022/06/22 11:51:30;;;;;;;5.10;3.17;;;23.40;68.40;;;;;;5109961;28;20095;-71
2022/06/22 11:54:33;;;;;;;4.93;3.05;;;23.60;69.00;;;;;;5111196;28;20055;-71
2022/06/22 11:57:23;;;;;;;4.38;2.88;;;23.70;70.40;;;;;;5109934;28;20139;-71
2022/06/22 11:59:55;;;;;;;4.93;3.25;;;23.80;68.80;;;;;;5109944;28;20050;-71
2022/06/22 12:02:48;;;;;;;4.47;2.70;;;24.00;67.30;;;;;;5093225;28;20046;-71
2022/06/22 12:05:20;;;;;;;3.78;2.60;;;24.00;69.30;;;;;;5110098;28;20148;-71
2022/06/22 12:08:08;;;;;;;6.22;3.55;;;24.30;69.10;;;;;;5111006;28;20388;-71
2022/06/22 12:10:47;;;;;;;6.43;3.00;;;23.80;63.40;;;;;;5109856;28;20039;-71
2022/06/22 12:13:39;;;;;;;5.93;3.17;;;23.90;62.20;;;;;;5109575;28;20047;-71
2022/06/22 12:16:30;;;;;;;4.20;2.75;;;24.10;66.80;;;;;;5110997;28;20062;-71
2022/06/22 12:19:18;;;;;;;3.42;2.65;;;24.10;67.40;;;;;;5092825;28;20069;-71
2022/06/22 12:22:08;;;;;;;4.78;2.30;;;24.30;68.30;;;;;;5111002;28;20031;-72
2022/06/22 12:24:41;;;;;;;5.45;2.50;;;24.30;66.50;;;;;;5109765;28;20049;-72
2022/06/22 12:27:20;;;;;;;4.85;2.55;;;23.90;63.90;;;;;;5092562;28;20051;-72
2022/06/22 12:30:08;;;;;;;2.75;2.50;;;24.20;66.20;;;;;;5109374;28;20043;-72
2022/06/22 12:33:26;;;;;;;4.63;3.05;;;24.40;65.80;;;;;;5109569;28;20043;-71
2022/06/22 12:36:23;;;;;;;4.07;2.63;;;24.50;64.30;;;;;;5067727;28;20051;-71
2022/06/22 12:38:53;;;;;;;4.82;2.88;;;24.40;65.10;;;;;;5110685;28;20052;-71
2022/06/22 12:41:47;;;;;;;5.43;3.22;;;24.60;66.60;;;;;;5109500;28;20042;-71
2022/06/22 12:44:37;;;;;;;5.05;2.53;;;24.30;64.60;;;;;;5109397;28;20039;-72
2022/06/22 12:47:18;;;;;;;4.05;2.80;;;24.60;65.60;;;;;;5109380;28;20040;-71
2022/06/22 12:49:46;;;;;;;6.57;3.13;;;24.60;64.70;;;;;;5109176;28;20051;-72
2022/06/22 12:52:21;;;;;;;5.55;2.67;;;24.60;66.50;;;;;;5109640;28;20040;-72
2022/06/22 12:54:55;;;;;;;5.88;3.30;;;24.90;67.50;;;;;;5109045;28;20101;-72
2022/06/22 12:57:29;;;;;;;5.80;2.88;;;24.90;66.00;;;;;;5092301;28;20477;-72
2022/06/22 13:00:16;;;;;;;4.05;2.88;;;25.00;68.10;;;;;;5109246;28;20051;-72
2022/06/22 13:02:43;;;;;;;4.63;2.88;;;24.90;66.30;;;;;;5093304;28;20179;-72
2022/06/22 13:05:11;;;;;;;4.95;2.70;;;24.60;64.50;;;;;;5113018;28;20043;-72
2022/06/22 13:07:51;;;;;;;6.03;2.85;;;24.90;68.40;;;;;;5114445;28;20044;-72
2022/06/22 13:10:24;;;;;;;4.50;2.63;;;24.80;68.10;;;;;;5112954;28;20050;-72
2022/06/22 13:13:20;;;;;;;5.65;2.42;;;24.90;66.30;;;;;;5113090;28;20115;-72
2022/06/22 13:16:01;;;;;;;7.93;3.13;;;25.00;67.00;;;;;;5113065;28;20036;-72
2022/06/22 13:18:42;;;;;;;3.45;2.75;;;24.90;64.50;;;;;;5114033;28;20047;-72
2022/06/22 13:21:13;;;;;;;4.88;3.30;;;25.20;68.10;;;;;;5113244;28;20040;-72
2022/06/22 13:23:58;;;;;;;5.07;3.40;;;25.00;65.20;;;;;;5113037;28;20606;-72
2022/06/22 13:26:49;;;;;;;5.72;3.30;;;25.00;63.70;;;;;;5095718;28;20061;-72
2022/06/22 13:29:35;;;;;;;3.72;2.92;;;25.20;67.20;;;;;;5112843;28;20043;-72
2022/06/22 13:32:07;;;;;;;7.47;3.20;;;25.00;66.20;;;;;;5114317;28;20096;-72
2022/06/22 13:34:49;;;;;;;6.15;2.38;;;24.60;66.00;;;;;;5112597;28;20043;-72
2022/06/22 13:37:47;;;;;;;5.05;3.25;;;24.90;66.80;;;;;;5112600;28;20044;-72
2022/06/22 13:40:43;;;;;;;6.32;2.90;;;25.20;66.50;;;;;;5095749;28;20434;-72
2022/06/22 13:43:48;;;;;;;5.38;3.00;;;25.10;66.50;;;;;;5112670;28;20055;-71
2022/06/22 13:46:21;;;;;;;6.35;3.58;;;24.70;64.50;;;;;;5113866;28;20413;-72
2022/06/22 13:48:58;;;;;;;7.13;3.80;;;25.10;68.00;;;;;;5112481;28;20051;-72
2022/06/22 13:52:04;;;;;;;5.50;3.70;;;25.10;66.80;;;;;;5113602;28;20084;-72
2022/06/22 13:54:49;;;;;;;5.22;3.53;;;25.00;67.90;;;;;;5112178;28;20131;-72
2022/06/22 13:57:41;;;;;;;5.60;3.53;;;24.90;67.50;;;;;;5112282;28;20054;-72
2022/06/22 14:00:15;;;;;;;8.88;4.32;;;25.00;69.60;;;;;;5094980;28;20043;-71
2022/06/22 14:02:58;;;;;;;4.50;3.45;;;25.40;68.50;;;;;;5096566;28;20120;-73
2022/06/22 14:05:46;;;;;;;11.90;4.20;;;25.40;68.80;;;;;;5110894;28;20046;-73
2022/06/22 14:08:35;;;;;;;7.80;3.35;;;25.60;69.50;;;;;;5088235;28;20119;-74
2022/06/22 14:11:26;;;;;;;6.72;3.45;;;25.60;68.80;;;;;;5101100;28;20097;-75
2022/06/22 14:13:55;;;;;;;6.95;4.85;;;25.60;70.00;;;;;;5062521;28;20092;-74
2022/06/22 14:16:28;;;;;;;7.32;4.57;;;24.70;68.30;;;;;;5105977;28;20423;-75
2022/06/22 14:19:19;;;;;;;7.53;4.30;;;24.70;70.40;;;;;;5103102;27;20039;-74